Time;durP1;ratioP1;P1;durP2;ratioP2;P2;SDS_P1;SDS_P2;PMS_P1;PMS_P2;Temp;Humidity;BMP_temperature;BMP_pressure;BME280_temperature;BME280_humidity;BME280_pressure;Samples;Min_cycle;Max_cycle;Signal;HPM_P1;HPM_P2
2023/04/22 00:02:02;;;;;;;24.98;12.52;;;;;;;;;;5116435;28;20023;-84
2023/04/22 00:04:28;;;;;;;22.83;12.20;;;;;;;;;;5118511;28;20032;-84
2023/04/22 00:06:54;;;;;;;18.70;11.90;;;;;;;;;;5118180;28;20020;-84
2023/04/22 00:09:20;;;;;;;18.98;11.95;;;;;;;;;;5116818;28;20032;-85
2023/04/22 00:11:46;;;;;;;21.52;11.18;;;;;;;;;;5118206;28;20040;-84
2023/04/22 00:14:12;;;;;;;24.65;12.95;;;;;;;;;;5118300;28;20024;-84
2023/04/22 00:16:39;;;;;;;18.88;11.70;;;;;;;;;;5117518;28;20156;-84
2023/04/22 00:19:05;;;;;;;20.08;10.23;;;;;;;;;;5117714;28;20329;-84
2023/04/22 00:21:32;;;;;;;17.70;10.27;;;;;;;;;;5116293;28;20437;-84
2023/04/22 00:23:58;;;;;;;17.30;10.15;;;;;;;;;;5117031;28;20031;-83
2023/04/22 00:26:24;;;;;;;14.82;9.98;;;;;;;;;;5118165;28;20023;-84
2023/04/22 00:28:50;;;;;;;19.20;11.32;;;;;;;;;;5116786;28;20361;-84
2023/04/22 00:31:16;;;;;;;20.70;10.73;;;;;;;;;;5117708;28;20360;-85
2023/04/22 00:33:42;;;;;;;18.52;11.30;;;;;;;;;;5116572;28;20140;-84
2023/04/22 00:36:08;;;;;;;20.88;10.93;;;;;;;;;;5116815;28;20077;-84
2023/04/22 00:38:34;;;;;;;18.40;11.13;;;;;;;;;;5118174;28;20310;-84
2023/04/22 00:41:00;;;;;;;21.33;11.07;;;;;;;;;;5116513;28;20069;-84
2023/04/22 00:43:26;;;;;;;17.63;10.52;;;;;;;;;;5118059;28;20031;-85
2023/04/22 00:45:52;;;;;;;19.00;10.95;;;;;;;;;;5118097;28;20018;-84
2023/04/22 00:48:19;;;;;;;16.20;9.43;;;;;;;;;;5117440;28;20052;-84
2023/04/22 00:50:45;;;;;;;15.52;9.30;;;;;;;;;;5117503;28;20032;-84
2023/04/22 00:53:11;;;;;;;20.38;9.55;;;;;;;;;;5116537;28;20028;-84
2023/04/22 00:55:37;;;;;;;18.40;9.60;;;;;;;;;;5117915;28;20019;-84
2023/04/22 00:58:03;;;;;;;18.10;9.07;;;;;;;;;;5116149;28;20040;-84
2023/04/22 01:00:30;;;;;;;16.88;8.88;;;;;;;;;;5117594;28;20107;-84
2023/04/22 01:02:57;;;;;;;19.92;9.27;;;;;;;;;;5117852;28;20073;-84
2023/04/22 01:05:23;;;;;;;22.55;9.32;;;;;;;;;;5116104;28;20432;-84
2023/04/22 01:07:50;;;;;;;18.92;8.82;;;;;;;;;;5116461;28;20093;-84
2023/04/22 01:10:16;;;;;;;17.95;9.45;;;;;;;;;;5116445;28;20031;-84
2023/04/22 01:12:42;;;;;;;20.90;9.50;;;;;;;;;;5116408;28;20126;-84
2023/04/22 01:15:08;;;;;;;20.10;9.40;;;;;;;;;;5117354;28;20040;-85
2023/04/22 01:17:35;;;;;;;16.75;9.48;;;;;;;;;;5116355;28;20027;-85
2023/04/22 01:20:03;;;;;;;17.63;9.00;;;;;;;;;;5113820;28;20310;-85
2023/04/22 01:22:32;;;;;;;16.60;9.40;;;;;;;;;;5096018;28;20020;-85
2023/04/22 01:24:58;;;;;;;15.45;9.57;;;;;;;;;;5096063;28;20032;-85
2023/04/22 01:27:25;;;;;;;16.90;9.65;;;;;;;;;;5097297;28;20020;-85
2023/04/22 01:29:51;;;;;;;21.90;10.00;;;;;;;;;;5099324;28;20040;-85
2023/04/22 01:32:18;;;;;;;15.18;9.45;;;;;;;;;;5100564;28;20044;-85
2023/04/22 01:34:44;;;;;;;16.60;9.60;;;;;;;;;;5100611;28;20344;-85
2023/04/22 01:37:10;;;;;;;18.67;9.77;;;;;;;;;;5099716;28;20031;-85
2023/04/22 01:39:36;;;;;;;13.93;8.85;;;;;;;;;;5100727;28;20024;-85
2023/04/22 01:42:03;;;;;;;15.90;10.05;;;;;;;;;;5099515;28;20021;-85
2023/04/22 01:44:29;;;;;;;12.75;8.88;;;;;;;;;;5100359;28;20027;-85
2023/04/22 01:49:59;;;;;;;14.70;9.27;;;;;;;;;;5100593;28;20329;-85
2023/04/22 01:52:26;;;;;;;14.82;9.63;;;;;;;;;;5099515;28;20016;-85
2023/04/22 01:54:52;;;;;;;17.10;9.35;;;;;;;;;;5100138;28;20134;-84
2023/04/22 01:57:18;;;;;;;14.13;8.95;;;;;;;;;;5100327;28;20028;-85
2023/04/22 01:59:45;;;;;;;14.27;9.30;;;;;;;;;;5099991;28;20449;-84
2023/04/22 02:02:29;;;;;;;16.23;9.65;;;;;;;;;;5098746;28;20063;-85
2023/04/22 02:04:56;;;;;;;17.55;9.90;;;;;;;;;;5098945;28;20039;-85
2023/04/22 02:07:22;;;;;;;15.70;9.68;;;;;;;;;;5100232;28;20020;-85
2023/04/22 02:09:48;;;;;;;18.77;9.38;;;;;;;;;;5100062;28;20457;-84
2023/04/22 02:12:14;;;;;;;18.17;9.80;;;;;;;;;;5119252;28;20471;-85
2023/04/22 02:14:40;;;;;;;12.00;8.77;;;;;;;;;;5120408;28;20027;-84
2023/04/22 02:20:28;;;;;;;14.90;10.50;;;;;;;;;;5097856;28;20055;-85
2023/04/22 02:22:54;;;;;;;15.52;10.40;;;;;;;;;;5079364;28;20029;-85
2023/04/22 02:25:20;;;;;;;19.02;9.57;;;;;;;;;;5079360;28;20090;-84
2023/04/22 02:27:46;;;;;;;17.27;9.38;;;;;;;;;;5079208;28;20086;-85
2023/04/22 02:30:12;;;;;;;13.13;9.40;;;;;;;;;;5079299;28;20291;-84
2023/04/22 02:32:39;;;;;;;15.70;10.13;;;;;;;;;;5078856;28;20031;-84
2023/04/22 02:35:05;;;;;;;15.88;9.52;;;;;;;;;;5079234;28;20418;-84
2023/04/22 02:37:31;;;;;;;17.70;9.88;;;;;;;;;;5078847;28;20059;-84
2023/04/22 02:39:57;;;;;;;17.85;10.90;;;;;;;;;;5077973;28;20021;-84
2023/04/22 02:42:23;;;;;;;17.60;10.32;;;;;;;;;;5078974;28;20039;-82
2023/04/22 02:44:49;;;;;;;19.52;10.35;;;;;;;;;;5079165;28;20024;-84
2023/04/22 02:50:19;;;;;;;12.18;9.35;;;;;;;;;;5078959;28;20375;-84
2023/04/22 02:52:45;;;;;;;15.95;10.15;;;;;;;;;;5078947;28;20115;-84
2023/04/22 02:55:11;;;;;;;18.55;9.35;;;;;;;;;;5078830;28;20028;-84
2023/04/22 02:57:37;;;;;;;16.65;9.88;;;;;;;;;;5079101;28;20025;-84
2023/04/22 03:00:04;;;;;;;18.70;10.13;;;;;;;;;;5077852;28;20041;-84
2023/04/22 03:03:07;;;;;;;20.55;10.02;;;;;;;;;;5082524;28;20099;-84
2023/04/22 03:05:34;;;;;;;16.75;10.38;;;;;;;;;;5097821;28;20020;-84
2023/04/22 03:08:00;;;;;;;20.65;10.85;;;;;;;;;;5098843;28;20020;-85
2023/04/22 03:10:26;;;;;;;18.02;10.07;;;;;;;;;;5098831;28;20032;-85
2023/04/22 03:12:52;;;;;;;13.20;9.85;;;;;;;;;;5098008;28;20044;-85
2023/04/22 03:15:18;;;;;;;15.38;10.43;;;;;;;;;;5098646;28;20035;-85
2023/04/22 03:17:44;;;;;;;16.20;9.88;;;;;;;;;;5098791;28;20032;-84
2023/04/22 03:20:10;;;;;;;16.83;10.32;;;;;;;;;;5098527;28;20028;-85
2023/04/22 03:22:36;;;;;;;17.65;10.38;;;;;;;;;;5134425;27;20130;-85
2023/04/22 03:25:03;;;;;;;14.32;9.50;;;;;;;;;;5139559;27;20011;-85
2023/04/22 03:27:29;;;;;;;19.67;10.27;;;;;;;;;;5139428;27;20452;-84
2023/04/22 03:29:55;;;;;;;18.10;11.88;;;;;;;;;;5138348;27;20065;-85
2023/04/22 03:32:53;;;;;;;23.48;12.50;;;;;;;;;;5139060;27;20351;-85
2023/04/22 03:35:19;;;;;;;23.80;14.00;;;;;;;;;;5139602;27;20413;-85
2023/04/22 03:37:45;;;;;;;20.85;13.00;;;;;;;;;;5137906;27;20440;-85
2023/04/22 03:40:11;;;;;;;17.77;11.57;;;;;;;;;;5134754;27;20405;-85
2023/04/22 03:42:37;;;;;;;17.67;11.30;;;;;;;;;;5118789;28;20111;-85
2023/04/22 03:45:04;;;;;;;18.23;10.80;;;;;;;;;;5117855;28;20059;-85
2023/04/22 03:47:30;;;;;;;17.92;10.57;;;;;;;;;;5118432;28;20027;-85
2023/04/22 03:49:56;;;;;;;23.80;9.90;;;;;;;;;;5118354;28;20081;-85
2023/04/22 03:52:22;;;;;;;17.75;10.90;;;;;;;;;;5118061;28;20110;-94
2023/04/22 03:54:48;;;;;;;13.95;10.02;;;;;;;;;;5118003;28;20031;-85
2023/04/22 03:57:14;;;;;;;13.77;10.85;;;;;;;;;;5118213;28;20406;-85
2023/04/22 03:59:40;;;;;;;19.67;11.35;;;;;;;;;;5114385;28;20501;-85
2023/04/22 04:02:07;;;;;;;25.58;11.00;;;;;;;;;;5098009;28;20032;-85
2023/04/22 04:04:33;;;;;;;21.92;10.63;;;;;;;;;;5101298;28;20022;-85
2023/04/22 04:07:00;;;;;;;21.65;10.93;;;;;;;;;;5118473;28;20035;-84
2023/04/22 04:09:26;;;;;;;19.73;12.60;;;;;;;;;;5118325;28;20115;-85
2023/04/22 04:11:52;;;;;;;22.30;13.75;;;;;;;;;;5118380;28;20104;-85
2023/04/22 04:14:18;;;;;;;28.10;16.15;;;;;;;;;;5117185;28;20341;-85
2023/04/22 04:16:44;;;;;;;37.50;20.92;;;;;;;;;;5118341;28;20020;-85
2023/04/22 04:19:10;;;;;;;32.63;17.63;;;;;;;;;;5117983;28;20046;-84
2023/04/22 04:21:36;;;;;;;18.98;11.43;;;;;;;;;;5116811;28;20048;-85
2023/04/22 04:24:04;;;;;;;16.35;10.07;;;;;;;;;;5116749;28;20046;-84
2023/04/22 04:26:31;;;;;;;17.50;11.57;;;;;;;;;;5116589;28;20043;-85
2023/04/22 04:28:57;;;;;;;16.90;10.75;;;;;;;;;;5117800;28;20035;-85
2023/04/22 04:31:23;;;;;;;20.70;10.55;;;;;;;;;;5116933;28;20027;-85
2023/04/22 04:33:49;;;;;;;17.58;10.88;;;;;;;;;;5118131;28;20028;-84
2023/04/22 04:36:16;;;;;;;14.25;9.90;;;;;;;;;;5118211;28;20031;-85
2023/04/22 04:38:42;;;;;;;18.95;10.75;;;;;;;;;;5112878;28;20042;-85
2023/04/22 04:41:09;;;;;;;13.63;10.77;;;;;;;;;;5116757;28;20080;-85
2023/04/22 04:43:35;;;;;;;21.02;10.65;;;;;;;;;;5115645;28;20045;-84
2023/04/22 04:46:01;;;;;;;17.73;10.23;;;;;;;;;;5096236;28;20051;-84
2023/04/22 04:48:28;;;;;;;16.02;10.48;;;;;;;;;;5097336;28;20016;-84
2023/04/22 04:50:54;;;;;;;17.80;10.25;;;;;;;;;;5096329;28;20421;-84
2023/04/22 04:53:21;;;;;;;15.75;10.05;;;;;;;;;;5097250;28;20059;-85
2023/04/22 04:55:47;;;;;;;14.75;9.57;;;;;;;;;;5097791;28;20024;-86
2023/04/22 04:58:14;;;;;;;17.67;10.40;;;;;;;;;;5097580;28;20021;-86
2023/04/22 05:00:40;;;;;;;14.15;9.70;;;;;;;;;;5096297;28;20028;-86
2023/04/22 05:03:06;;;;;;;16.02;10.18;;;;;;;;;;5099697;28;20036;-86
2023/04/22 05:05:32;;;;;;;15.05;10.07;;;;;;;;;;5114434;28;20039;-87
2023/04/22 05:07:58;;;;;;;12.80;9.48;;;;;;;;;;5121629;28;20460;-86
2023/04/22 05:10:24;;;;;;;19.80;10.13;;;;;;;;;;5121844;28;20047;-86
2023/04/22 05:12:50;;;;;;;14.48;9.50;;;;;;;;;;5120178;28;20076;-87
2023/04/22 05:15:16;;;;;;;16.27;9.65;;;;;;;;;;5120660;28;20059;-87
2023/04/22 05:17:43;;;;;;;15.10;9.73;;;;;;;;;;5101107;28;20047;-87
2023/04/22 05:20:09;;;;;;;16.42;10.38;;;;;;;;;;5101215;28;20044;-87
2023/04/22 05:22:36;;;;;;;18.48;10.32;;;;;;;;;;5100045;28;20047;-87
2023/04/22 05:25:02;;;;;;;17.33;10.50;;;;;;;;;;5100977;28;20020;-86
2023/04/22 05:27:29;;;;;;;18.23;10.73;;;;;;;;;;5112843;28;20039;-84
2023/04/22 05:29:55;;;;;;;16.92;9.63;;;;;;;;;;5121132;28;20034;-85
2023/04/22 05:38:42;;;;;;;13.93;9.40;;;;;;;;;;5114768;28;20093;-85
2023/04/22 05:41:08;;;;;;;15.43;9.65;;;;;;;;;;5099558;28;20032;-85
2023/04/22 05:43:34;;;;;;;11.98;9.10;;;;;;;;;;5100765;28;20020;-84
2023/04/22 05:46:00;;;;;;;20.00;10.23;;;;;;;;;;5100421;28;20416;-85
2023/04/22 05:51:31;;;;;;;15.13;9.80;;;;;;;;;;5100631;28;20073;-84
2023/04/22 05:53:57;;;;;;;15.40;10.18;;;;;;;;;;5100567;28;20024;-85
2023/04/22 05:56:23;;;;;;;16.67;9.60;;;;;;;;;;5099373;28;20107;-85
2023/04/22 05:58:49;;;;;;;17.92;9.95;;;;;;;;;;5102678;28;20020;-85
2023/04/22 06:01:15;;;;;;;16.25;8.75;;;;;;;;;;5120538;28;20031;-85
2023/04/22 06:06:46;;;;;;;14.25;8.68;;;;;;;;;;5120442;28;20031;-85
2023/04/22 06:09:12;;;;;;;16.63;9.27;;;;;;;;;;5120774;28;20027;-85
2023/04/22 06:11:39;;;;;;;14.90;9.43;;;;;;;;;;5119341;28;20486;-84
2023/04/22 06:14:05;;;;;;;13.52;8.88;;;;;;;;;;5118407;28;20043;-85
2023/04/22 06:16:49;;;;;;;14.35;9.43;;;;;;;;;;5120318;28;20106;-85
2023/04/22 06:19:15;;;;;;;14.35;10.15;;;;;;;;;;5103710;28;20028;-85
2023/04/22 06:21:42;;;;;;;16.40;9.70;;;;;;;;;;5099615;28;20040;-84
2023/04/22 06:24:09;;;;;;;14.43;9.20;;;;;;;;;;5108563;28;20016;-85
2023/04/22 06:26:35;;;;;;;17.35;8.93;;;;;;;;;;5119058;28;20020;-84
2023/04/22 06:29:04;;;;;;;13.98;9.40;;;;;;;;;;5118430;28;20034;-84
2023/04/22 06:31:30;;;;;;;17.17;10.38;;;;;;;;;;5119830;28;20023;-84
2023/04/22 06:33:56;;;;;;;17.20;8.95;;;;;;;;;;5110519;28;20024;-84
2023/04/22 06:36:23;;;;;;;15.38;10.02;;;;;;;;;;5099759;28;20042;-84
2023/04/22 06:38:49;;;;;;;13.75;8.93;;;;;;;;;;5099609;28;20027;-85
2023/04/22 06:41:16;;;;;;;16.73;10.35;;;;;;;;;;5099262;28;20463;-85
2023/04/22 06:43:42;;;;;;;12.52;8.88;;;;;;;;;;5099514;28;20050;-84
2023/04/22 06:46:08;;;;;;;12.75;8.00;;;;;;;;;;5099263;28;20028;-84
2023/04/22 06:48:52;;;;;;;12.70;8.50;;;;;;;;;;5098994;28;20040;-84
2023/04/22 06:51:18;;;;;;;11.20;8.32;;;;;;;;;;5098018;28;20040;-84
2023/04/22 06:53:44;;;;;;;14.65;9.05;;;;;;;;;;5098476;28;20043;-85
2023/04/22 06:56:10;;;;;;;13.63;8.65;;;;;;;;;;5098962;28;20418;-85
2023/04/22 06:58:36;;;;;;;12.93;8.15;;;;;;;;;;5099377;28;20031;-85
2023/04/22 07:01:02;;;;;;;11.80;8.57;;;;;;;;;;5097715;28;20325;-85
2023/04/22 07:03:28;;;;;;;11.48;8.45;;;;;;;;;;5098682;28;20330;-84
2023/04/22 07:05:54;;;;;;;13.35;8.35;;;;;;;;;;5098773;28;20406;-85
2023/04/22 07:08:20;;;;;;;11.43;8.48;;;;;;;;;;5101012;28;20411;-85
2023/04/22 07:10:46;;;;;;;14.15;8.80;;;;;;;;;;5102070;28;20060;-84
2023/04/22 07:13:13;;;;;;;12.35;8.55;;;;;;;;;;5098549;28;20035;-84
2023/04/22 07:15:39;;;;;;;15.60;8.73;;;;;;;;;;5098806;28;20066;-84
2023/04/22 07:18:05;;;;;;;13.70;8.85;;;;;;;;;;5099612;28;20055;-84
2023/04/22 07:20:32;;;;;;;16.08;8.05;;;;;;;;;;5118843;28;20111;-83
2023/04/22 07:22:58;;;;;;;23.67;7.82;;;;;;;;;;5109602;28;20078;-83
2023/04/22 07:25:24;;;;;;;12.68;7.28;;;;;;;;;;5097765;28;20429;-85
2023/04/22 07:27:50;;;;;;;17.08;8.93;;;;;;;;;;5110612;28;20038;-84
2023/04/22 07:30:16;;;;;;;12.73;7.38;;;;;;;;;;5106642;28;20019;-84
2023/04/22 07:32:42;;;;;;;17.77;7.63;;;;;;;;;;5118302;28;20028;-84
2023/04/22 07:35:08;;;;;;;14.27;8.25;;;;;;;;;;5109087;28;20076;-85
2023/04/22 07:37:34;;;;;;;12.88;8.05;;;;;;;;;;5097254;28;20028;-87
2023/04/22 07:40:00;;;;;;;7.85;5.72;;;;;;;;;;5114637;28;20435;-87
2023/04/22 07:42:26;;;;;;;16.90;7.75;;;;;;;;;;5109437;28;20026;-82
2023/04/22 07:44:52;;;;;;;14.20;7.55;;;;;;;;;;5117434;28;20032;-84
2023/04/22 07:47:18;;;;;;;14.60;7.80;;;;;;;;;;5112336;28;20027;-82
2023/04/22 07:49:44;;;;;;;11.63;7.78;;;;;;;;;;5118418;28;20023;-81
2023/04/22 07:52:11;;;;;;;12.85;8.45;;;;;;;;;;5118551;28;20023;-87
2023/04/22 07:54:37;;;;;;;17.23;8.60;;;;;;;;;;5109992;28;20069;-88
2023/04/22 07:57:03;;;;;;;22.25;9.18;;;;;;;;;;5097978;28;20083;-89
2023/04/22 07:59:29;;;;;;;16.70;9.68;;;;;;;;;;5096917;28;20020;-87
2023/04/22 08:01:55;;;;;;;15.50;9.38;;;;;;;;;;5114867;27;20028;-87
2023/04/22 08:04:24;;;;;;;15.68;9.75;;;;;;;;;;5118288;28;20409;-89
2023/04/22 08:06:50;;;;;;;20.88;11.07;;;;;;;;;;5117970;28;20051;-88
2023/04/22 08:09:16;;;;;;;16.50;10.63;;;;;;;;;;5118637;28;20020;-88
2023/04/22 08:11:42;;;;;;;19.67;10.80;;;;;;;;;;5118097;28;20039;-88
2023/04/22 08:14:08;;;;;;;20.15;11.10;;;;;;;;;;5118434;28;20103;-88
2023/04/22 08:16:34;;;;;;;18.00;11.10;;;;;;;;;;5116953;28;20119;-89
2023/04/22 08:19:00;;;;;;;20.30;9.68;;;;;;;;;;5118251;28;20023;-88
2023/04/22 08:21:27;;;;;;;20.02;10.07;;;;;;;;;;5118020;28;20113;-88
2023/04/22 08:23:53;;;;;;;20.55;10.18;;;;;;;;;;5118294;28;20019;-89
2023/04/22 08:26:20;;;;;;;21.95;10.63;;;;;;;;;;5118061;28;20401;-89
2023/04/22 08:28:46;;;;;;;18.75;10.70;;;;;;;;;;5117960;28;20325;-89
2023/04/22 08:31:12;;;;;;;21.77;10.25;;;;;;;;;;5116728;28;20035;-88
2023/04/22 08:33:40;;;;;;;21.27;10.68;;;;;;;;;;5117917;28;20393;-88
2023/04/22 08:36:07;;;;;;;19.30;10.63;;;;;;;;;;5116707;28;20039;-87
2023/04/22 08:38:33;;;;;;;22.83;10.60;;;;;;;;;;5121061;28;20048;-89
2023/04/22 08:40:59;;;;;;;18.05;10.77;;;;;;;;;;5120518;28;20031;-88
2023/04/22 08:43:26;;;;;;;18.90;10.32;;;;;;;;;;5122445;28;20286;-88
2023/04/22 08:45:52;;;;;;;25.27;10.93;;;;;;;;;;5121859;28;20031;-88
2023/04/22 08:48:37;;;;;;;20.15;11.07;;;;;;;;;;5121135;28;20032;-88
2023/04/22 08:51:03;;;;;;;16.75;9.35;;;;;;;;;;5120676;28;20067;-88
2023/04/22 08:53:30;;;;;;;12.30;9.00;;;;;;;;;;5121943;28;20035;-87
2023/04/22 08:55:56;;;;;;;16.75;8.95;;;;;;;;;;5121216;28;20067;-88
2023/04/22 08:58:23;;;;;;;11.65;7.03;;;;;;;;;;5104260;28;20098;-86
2023/04/22 09:00:50;;;;;;;18.20;7.50;;;;;;;;;;5113523;28;20546;-86
2023/04/22 09:03:17;;;;;;;19.48;7.25;;;;;;;;;;5121996;28;20321;-88
2023/04/22 09:05:44;;;;;;;12.32;6.35;;;;;;;;;;5120504;28;20055;-91
2023/04/22 09:08:10;;;;;;;12.32;6.50;;;;;;;;;;5118737;28;20024;-91
2023/04/22 09:10:37;;;;;;;11.60;6.68;;;;;;;;;;5103792;27;20448;-90
2023/04/22 09:13:04;;;;;;;12.32;5.97;;;;;;;;;;5121278;28;20036;-89
2023/04/22 09:15:30;;;;;;;14.48;6.80;;;;;;;;;;5115089;28;20373;-90
2023/04/22 09:17:57;;;;;;;10.30;5.20;;;;;;;;;;5101209;28;20036;-87
2023/04/22 09:20:27;;;;;;;15.30;5.55;;;;;;;;;;5101050;28;20322;-86
2023/04/22 09:22:54;;;;;;;6.32;3.88;;;;;;;;;;5099764;28;20044;-84
2023/04/22 09:25:21;;;;;;;7.18;3.95;;;;;;;;;;5116118;28;20047;-83
2023/04/22 09:27:51;;;;;;;14.50;3.90;;;;;;;;;;5107519;28;20016;-84
2023/04/22 09:30:22;;;;;;;8.05;3.92;;;;;;;;;;5100558;28;20375;-83
2023/04/22 09:44:53;;;;;;;8.43;4.15;;;;;;;;;;5135928;27;20845;-85
2023/04/22 09:47:22;;;;;;;8.93;4.00;;;;;;;;;;5135808;28;20023;-85
2023/04/22 09:53:06;;;;;;;13.90;4.35;;;;;;;;;;5135896;28;20076;-89
2023/04/22 09:55:34;;;;;;;15.27;4.38;;;;;;;;;;5135766;28;20019;-85
2023/04/22 09:58:04;;;;;;;34.17;5.85;;;;;;;;;;5135603;28;20401;-85
2023/04/22 10:00:31;;;;;;;41.10;6.13;;;;;;;;;;5117399;28;20023;-85
2023/04/22 10:02:57;;;;;;;11.82;4.20;;;;;;;;;;5117342;28;20027;-86
2023/04/22 10:05:25;;;;;;;13.40;4.40;;;;;;;;;;5117312;28;20027;-86
2023/04/22 10:07:52;;;;;;;9.43;3.95;;;;;;;;;;5135676;28;20046;-85
2023/04/22 10:10:18;;;;;;;5.30;3.67;;;;;;;;;;5116837;28;20420;-86
2023/04/22 10:12:45;;;;;;;9.27;4.30;;;;;;;;;;5117206;28;20031;-85
2023/04/22 10:15:11;;;;;;;6.05;3.70;;;;;;;;;;5135436;28;20026;-86
2023/04/22 10:20:59;;;;;;;6.75;3.92;;;;;;;;;;5135563;28;20145;-88
2023/04/22 10:23:26;;;;;;;8.65;4.38;;;;;;;;;;5117175;28;20031;-88
2023/04/22 10:25:55;;;;;;;5.85;3.50;;;;;;;;;;5134940;28;20028;-92
2023/04/22 10:28:22;;;;;;;8.45;3.92;;;;;;;;;;5135795;28;20412;-91
2023/04/22 10:30:49;;;;;;;14.77;5.78;;;;;;;;;;5135287;28;20027;-87
2023/04/22 10:33:23;;;;;;;16.67;4.10;;;;;;;;;;5135201;28;20024;-90
2023/04/22 10:36:08;;;;;;;18.20;4.65;;;;;;;;;;5116557;28;20023;-84
2023/04/22 10:38:34;;;;;;;7.57;3.70;;;;;;;;;;5134682;28;20034;-89
2023/04/22 10:41:02;;;;;;;8.23;3.78;;;;;;;;;;5134828;28;20023;-89
2023/04/22 10:43:48;;;;;;;9.90;3.90;;;;;;;;;;5133892;28;20123;-88
2023/04/22 10:46:33;;;;;;;6.30;3.90;;;;;;;;;;5121091;28;20031;-89
2023/04/22 10:48:59;;;;;;;9.23;3.60;;;;;;;;;;5121038;28;20076;-89
2023/04/22 10:51:41;;;;;;;11.95;4.03;;;;;;;;;;5120742;28;20023;-89
2023/04/22 10:54:08;;;;;;;;;;;;;;;;;;5121383;28;20080;-90
2023/04/22 10:56:34;;;;;;;11.27;4.40;;;;;;;;;;5120030;28;19991;-89
2023/04/22 10:59:15;;;;;;;8.20;3.88;;;;;;;;;;5121278;28;20023;-89
2023/04/22 11:01:41;;;;;;;6.93;4.30;;;;;;;;;;5119848;28;20026;-90
2023/04/22 11:04:21;;;;;;;7.80;3.95;;;;;;;;;;5119723;28;20031;-89
2023/04/22 11:07:07;;;;;;;9.68;4.30;;;;;;;;;;5121025;27;20043;-90
2023/04/22 11:09:38;;;;;;;8.73;3.70;;;;;;;;;;5120446;28;20039;-88
2023/04/22 11:12:23;;;;;;;10.23;3.87;;;;;;;;;;5120685;28;20085;-89
2023/04/22 11:14:49;;;;;;;5.65;3.30;;;;;;;;;;5120677;28;20255;-90
2023/04/22 11:17:15;;;;;;;14.70;4.07;;;;;;;;;;5120385;28;20016;-94
2023/04/22 11:19:41;;;;;;;37.35;4.28;;;;;;;;;;5120386;28;20065;-90
2023/04/22 11:22:07;;;;;;;11.07;3.58;;;;;;;;;;5114902;27;20132;-89
2023/04/22 11:24:34;;;;;;;53.60;6.13;;;;;;;;;;5125770;27;20499;-88
2023/04/22 11:27:00;;;;;;;6.47;3.70;;;;;;;;;;5119321;28;20027;-89
2023/04/22 11:29:28;;;;;;;10.38;3.70;;;;;;;;;;5127270;27;20015;-89
2023/04/22 11:31:58;;;;;;;7.38;3.85;;;;;;;;;;5131491;27;20150;-89
2023/04/22 11:34:43;;;;;;;5.72;3.63;;;;;;;;;;5126753;27;20027;-90
2023/04/22 11:37:09;;;;;;;11.15;3.63;;;;;;;;;;5119796;28;20377;-87
2023/04/22 11:39:36;;;;;;;7.00;3.60;;;;;;;;;;5113177;28;20027;-87
2023/04/22 11:42:02;;;;;;;21.00;5.40;;;;;;;;;;5098212;28;20401;-86
2023/04/22 11:44:28;;;;;;;11.77;3.60;;;;;;;;;;5113831;28;20500;-87
2023/04/22 11:46:56;;;;;;;9.15;4.03;;;;;;;;;;5118248;28;20027;-87
2023/04/22 11:49:40;;;;;;;7.03;3.60;;;;;;;;;;5116631;28;20032;-86
2023/04/22 11:52:07;;;;;;;5.57;3.38;;;;;;;;;;5119545;28;20073;-87
2023/04/22 11:54:35;;;;;;;9.85;4.20;;;;;;;;;;5109866;28;20035;-87
2023/04/22 11:57:07;;;;;;;5.40;3.45;;;;;;;;;;5097284;28;20027;-87
2023/04/22 11:59:33;;;;;;;7.50;3.88;;;;;;;;;;5098304;28;20030;-86
2023/04/22 12:01:59;;;;;;;10.68;4.70;;;;;;;;;;5098123;28;20455;-87
2023/04/22 12:04:25;;;;;;;6.15;4.05;;;;;;;;;;5116315;28;20035;-86
2023/04/22 12:06:51;;;;;;;9.07;4.07;;;;;;;;;;5118973;28;20413;-86
2023/04/22 12:09:17;;;;;;;4.45;3.53;;;;;;;;;;5119533;28;20027;-87
2023/04/22 12:11:47;;;;;;;10.65;4.55;;;;;;;;;;5111568;28;20024;-85
2023/04/22 12:14:13;;;;;;;7.60;3.83;;;;;;;;;;5098849;28;20364;-86
2023/04/22 12:16:40;;;;;;;9.52;4.22;;;;;;;;;;5097776;28;20127;-85
2023/04/22 12:19:06;;;;;;;8.20;4.30;;;;;;;;;;5098469;28;20032;-85
2023/04/22 12:21:32;;;;;;;8.15;5.00;;;;;;;;;;5116860;28;20035;-85
2023/04/22 12:23:59;;;;;;;9.10;4.85;;;;;;;;;;5118982;28;20024;-85
2023/04/22 12:26:27;;;;;;;9.82;4.70;;;;;;;;;;5117849;28;20401;-85
2023/04/22 12:28:53;;;;;;;44.00;7.63;;;;;;;;;;5117841;28;20042;-85
2023/04/22 12:31:20;;;;;;;11.10;4.07;;;;;;;;;;5118680;28;20313;-85
2023/04/22 12:33:46;;;;;;;8.68;3.80;;;;;;;;;;5117118;28;20509;-85
2023/04/22 12:36:12;;;;;;;7.07;4.03;;;;;;;;;;5118759;28;20030;-84
2023/04/22 12:38:39;;;;;;;7.78;4.38;;;;;;;;;;5118580;28;20020;-85
2023/04/22 12:41:06;;;;;;;17.55;4.53;;;;;;;;;;5118808;28;20309;-85
2023/04/22 12:43:35;;;;;;;11.65;4.47;;;;;;;;;;5117226;28;20052;-85
2023/04/22 12:46:01;;;;;;;19.38;5.32;;;;;;;;;;5118514;28;20088;-86
2023/04/22 12:48:27;;;;;;;22.52;4.35;;;;;;;;;;5117308;28;20024;-84
2023/04/22 12:50:53;;;;;;;10.63;4.30;;;;;;;;;;5118228;28;20019;-84
2023/04/22 12:53:20;;;;;;;6.70;3.70;;;;;;;;;;5118176;28;20080;-85
2023/04/22 12:55:47;;;;;;;14.32;4.68;;;;;;;;;;5116826;28;20036;-85
2023/04/22 12:58:13;;;;;;;31.02;4.95;;;;;;;;;;5118124;28;20027;-83
2023/04/22 13:00:39;;;;;;;18.15;4.30;;;;;;;;;;5118146;28;20094;-84
2023/04/22 13:03:05;;;;;;;19.60;4.85;;;;;;;;;;5118145;28;20026;-85
2023/04/22 13:05:31;;;;;;;12.02;4.40;;;;;;;;;;5118292;28;20027;-84
2023/04/22 13:07:58;;;;;;;12.95;3.90;;;;;;;;;;5117748;28;20031;-84
2023/04/22 13:10:26;;;;;;;10.40;4.20;;;;;;;;;;5117059;28;20024;-84
2023/04/22 13:12:53;;;;;;;11.43;3.83;;;;;;;;;;5117810;28;20032;-84
2023/04/22 13:15:20;;;;;;;11.13;4.22;;;;;;;;;;5116929;28;20393;-84
2023/04/22 13:17:46;;;;;;;46.95;6.57;;;;;;;;;;5118187;28;20294;-84
2023/04/22 13:20:13;;;;;;;5.32;3.75;;;;;;;;;;5117862;28;20020;-84
2023/04/22 13:22:39;;;;;;;13.10;4.13;;;;;;;;;;5113099;28;20027;-85
2023/04/22 13:25:06;;;;;;;12.13;3.75;;;;;;;;;;5101859;28;20024;-84
2023/04/22 13:27:33;;;;;;;6.93;4.20;;;;;;;;;;5097481;28;20310;-84
2023/04/22 13:29:59;;;;;;;5.53;3.70;;;;;;;;;;5097224;28;20032;-84
2023/04/22 13:32:25;;;;;;;4.85;3.60;;;;;;;;;;5100962;28;20028;-84
2023/04/22 13:34:51;;;;;;;7.65;4.20;;;;;;;;;;5117540;28;20111;-84
2023/04/22 13:37:19;;;;;;;8.85;3.75;;;;;;;;;;5117655;28;20305;-84
2023/04/22 13:39:45;;;;;;;5.75;4.07;;;;;;;;;;5116624;28;20054;-84
2023/04/22 13:42:11;;;;;;;8.82;4.10;;;;;;;;;;5117542;28;20023;-86
2023/04/22 13:44:37;;;;;;;9.77;3.75;;;;;;;;;;5117499;28;20400;-84
2023/04/22 13:47:03;;;;;;;7.93;4.03;;;;;;;;;;5117853;28;20034;-84
2023/04/22 13:49:29;;;;;;;9.55;4.25;;;;;;;;;;5117646;28;20042;-84
2023/04/22 13:51:55;;;;;;;11.35;4.22;;;;;;;;;;5117525;28;20024;-85
2023/04/22 13:54:22;;;;;;;6.38;4.22;;;;;;;;;;5117452;28;20050;-85
2023/04/22 13:56:48;;;;;;;9.88;4.22;;;;;;;;;;5117718;28;20024;-84
2023/04/22 13:59:14;;;;;;;26.02;5.53;;;;;;;;;;5117555;28;20027;-85
2023/04/22 14:01:40;;;;;;;12.02;4.20;;;;;;;;;;5117530;28;20023;-85
2023/04/22 14:04:06;;;;;;;6.43;4.30;;;;;;;;;;5117604;28;20417;-85
2023/04/22 14:06:32;;;;;;;13.73;4.70;;;;;;;;;;5116573;28;20027;-84
2023/04/22 14:08:59;;;;;;;9.30;4.45;;;;;;;;;;5117261;28;20039;-84
2023/04/22 14:11:26;;;;;;;7.35;4.28;;;;;;;;;;5117579;28;20023;-85
2023/04/22 14:13:52;;;;;;;10.63;4.15;;;;;;;;;;5117524;28;20024;-85
2023/04/22 14:16:18;;;;;;;6.40;3.92;;;;;;;;;;5116609;28;20118;-88
2023/04/22 14:18:45;;;;;;;13.23;4.28;;;;;;;;;;5116626;28;20059;-88
2023/04/22 14:21:11;;;;;;;5.72;3.92;;;;;;;;;;5121619;28;20027;-88
2023/04/22 14:23:39;;;;;;;7.82;4.10;;;;;;;;;;5120358;28;20066;-88
2023/04/22 14:26:05;;;;;;;23.05;9.82;;;;;;;;;;5121719;28;20032;-88
2023/04/22 14:28:32;;;;;;;11.90;5.88;;;;;;;;;;5120497;28;20317;-87
2023/04/22 14:30:58;;;;;;;27.98;9.43;;;;;;;;;;5121388;28;20039;-87
2023/04/22 14:33:24;;;;;;;7.45;4.07;;;;;;;;;;5120265;28;20070;-88
2023/04/22 14:35:51;;;;;;;8.10;3.97;;;;;;;;;;5121257;28;20020;-87
2023/04/22 14:38:17;;;;;;;9.00;4.45;;;;;;;;;;5121028;28;20073;-88
2023/04/22 14:40:43;;;;;;;19.80;7.60;;;;;;;;;;5120519;28;20130;-88
2023/04/22 14:43:10;;;;;;;16.90;6.97;;;;;;;;;;5121086;28;20135;-87
2023/04/22 14:45:36;;;;;;;10.48;5.40;;;;;;;;;;5121088;28;20027;-87
2023/04/22 14:51:04;;;;;;;10.68;5.70;;;;;;;;;;5121237;28;20038;-88
2023/04/22 14:53:30;;;;;;;11.68;5.85;;;;;;;;;;5120925;28;20052;-87
2023/04/22 14:55:56;;;;;;;16.83;6.78;;;;;;;;;;5121041;28;20023;-88
2023/04/22 14:58:23;;;;;;;10.23;5.20;;;;;;;;;;5120528;28;20019;-88
2023/04/22 15:00:49;;;;;;;10.88;5.95;;;;;;;;;;5137988;27;20370;-87
2023/04/22 15:03:25;;;;;;;17.70;6.60;;;;;;;;;;5141615;27;20312;-87
2023/04/22 15:05:51;;;;;;;15.32;7.35;;;;;;;;;;5140381;27;20051;-88
2023/04/22 15:08:18;;;;;;;17.42;6.20;;;;;;;;;;5141526;27;20029;-87
2023/04/22 15:10:45;;;;;;;18.08;6.13;;;;;;;;;;5141444;27;20030;-88
2023/04/22 15:13:11;;;;;;;19.73;5.75;;;;;;;;;;5141253;27;20035;-87